Kemptville, Canada
Current Conditions -  °F | °C
As of 3:00 AM on Wednesday 22 Oct 2014 (Local Time) from CYOW Reporting Station
Broken Clouds Broken Clouds  
Wind Chill: 37°   Ceiling: 5900
Heat Index: 43°   Visibility: 15mi
Dew Point: 32°   Wind: 12mph
Humidity: 66%   Direction: 10°N
Pressure: 30.18"   Gusts: NA
Location:  45.02°N, 75.65°W
Report Text: CYOW 220700Z 01010KT 15SM BKN059 06/00 A3018 RMK SC6 SLP225
Loading
Personal Weather Stations






























Interactive Weather Map New forecast layout! Learn more

10-Day Weather Forecast

Advertisements
Track Severe Weather on mobile